• Join FlightAware (Why Join?)
  • Login
  • US Flag 
03:16AM EDT


 

Airport Tracker/Info


-or-


 

Live Flight TrackerFlight Track Log ✈ N931FR ✈ 01-May-2013 ✈ KDEN - KSLC

Flight Track Log - Related Links

Times and Time Zones

All times are in EDT time to prevent confusion due to time zone crossing. See the N931FR flight status page for this flight to view local times or setup timezone preferences in your user account.

Time Position Orientation Groundspeed Altitude Reporting Facility
EDT Latitude Longitude Course Direction KTS MPH feet Rate Location/Type
08:19PM 39.8333 -104.7333 303° West 169 194 6,300  Level Denver TRACON
08:20PM 39.8667 -104.8000 303° West 214 246 7,900 1,560 Climbing Denver TRACON
08:21PM 39.8867 -104.8519 297° West 235 270 9,000 2,100 Climbing Denver Center
08:22PM 39.9281 -104.9431 301° West 289 333 11,300 2,460 Climbing Denver Center
08:23PM 39.9711 -105.0453 299° West 319 367 14,200 3,060 Climbing Denver Center
08:25PM 39.9936 -105.2781 277° West 301 346 20,800 2,880 Climbing Denver Center
08:26PM 39.9889 -105.3950 267° West 301 346 23,200 1,860 Climbing Denver Center
08:27PM 39.9839 -105.4958 266° West 301 346 24,700 1,320 Climbing Denver Center
08:28PM 39.9775 -105.6144 266° West 326 375 26,000 1,200 Climbing Denver Center
08:29PM 39.9725 -105.7686 268° West 363 418 27,200 1,260 Climbing Denver Center
08:30PM 39.9725 -105.9047 270° West 369 425 28,700 1,380 Climbing Denver Center
08:31PM 39.9811 -106.0458 275° West 385 443 30,100 1,020 Climbing Denver Center
08:32PM 39.9883 -106.1919 274° West 399 459 30,900 960 Climbing Denver Center
08:33PM 39.9958 -106.3414 274° West 409 471 32,100 1,200 Climbing Denver Center
08:34PM 40.0036 -106.4658 275° West 410 472 33,400 1,320 Climbing Denver Center
08:35PM 40.0128 -106.6581 274° West 409 471 34,900 1,200 Climbing Denver Center
08:36PM 40.0197 -106.7997 274° West 408 470 36,000 480 Climbing Denver Center
08:37PM 40.0264 -106.9369 274° West 398 458 36,000  Level Denver Center
08:38PM 40.0342 -107.0997 274° West 404 465 36,000  Level Denver Center
08:39PM 40.0422 -107.2811 273° West 394 453 36,000  Level Denver Center
08:40PM 40.0481 -107.4167 273° West 392 451 36,000  Level Denver Center
08:42PM 40.0542 -107.5756 273° West 392 451 36,000  Level Denver Center
08:43PM 40.0597 -107.7133 273° West 396 456 36,000  Level Denver Center
08:44PM 40.0644 -107.8514 273° West 399 459 36,000  Level Denver Center
08:45PM 40.0719 -108.0144 273° West 403 464 36,000  Level Denver Center
08:46PM 40.0783 -108.1533 273° West 403 464 36,100  Climbing Denver Center
08:47PM 40.0864 -108.3133 274° West 399 459 36,000 -60 Descending Denver Center
08:48PM 40.0914 -108.4511 273° West 398 458 36,000  Level Denver Center
08:49PM 40.0969 -108.6089 273° West 393 452 36,000  Level Denver Center
08:50PM 40.1031 -108.7447 273° West 393 452 36,000  Level Denver Center
08:51PM 40.1083 -108.9044 273° West 395 455 36,000  Level Salt Lake Center
08:52PM 40.0717 -109.0253 248° West 389 448 36,000  Level Salt Lake Center
08:53PM 39.9706 -109.1264 217° Southwest 412 474 36,000  Level Denver Center
08:54PM 39.8822 -109.2114 216° Southwest 415 478 36,000  Level Denver Center
08:55PM 39.7950 -109.3239 225° Southwest 399 459 36,000  Level Salt Lake Center
08:56PM 39.8094 -109.4344 280° West 339 390 36,000  Level Salt Lake Center
08:57PM 39.9069 -109.4644 347° North 338 389 36,000 -300 Level Salt Lake Center
08:58PM 39.9992 -109.4672 359° North 344 396 35,400 -840 Descending Denver Center
08:59PM 40.0964 -109.4903 350° North 367 422 34,400 -1,020 Descending Denver Center
09:00PM 40.1864 -109.5714 325° Northwest 349 402 33,300 -960 Descending Salt Lake Center
09:01PM 40.2486 -109.6450 318° Northwest 320 368 32,400 -1,080 Descending Salt Lake Center
09:02PM 40.3147 -109.7428 312° West 319 367 31,200 -1,080 Descending Salt Lake Center
09:03PM 40.3469 -109.8483 292° West 340 391 30,300 -600 Descending Salt Lake Center
09:04PM 40.3269 -109.9964 260° West 371 427 30,000 -180 Descending Salt Lake Center
09:05PM 40.3083 -110.1233 259° West 372 428 30,000  Level Salt Lake Center
09:06PM 40.2881 -110.2500 258° West 371 427 30,000  Level Salt Lake Center
09:07PM 40.2661 -110.4003 259° West 374 430 30,000 -360 Level Salt Lake Center
09:08PM 40.2206 -110.5214 244° Southwest 399 459 29,300 -1,260 Descending Salt Lake Center
09:09PM 40.1389 -110.6506 230° Southwest 413 475 27,400 -1,860 Descending Salt Lake Center
09:10PM 40.0672 -110.7542 228° Southwest 403 464 25,600 -1,920 Descending Salt Lake Center
09:11PM 40.0006 -110.8567 230° Southwest 391 450 23,500 -1,860 Descending Salt Lake Center
09:12PM 39.9231 -110.9761 230° Southwest 388 447 21,800 -1,320 Descending Salt Lake Center
09:13PM 39.9203 -111.0833 268° West 326 375 20,900 -1,020 Descending Salt Lake Center
09:14PM 39.9639 -111.1817 300° West 287 330 19,800 -1,080 Descending Salt Lake Center
09:15PM 40.0031 -111.2667 301° West 285 328 18,800 -1,020 Descending Salt Lake Center
09:16PM 40.0461 -111.3597 301° West 286 329 17,800 -780 Descending Salt Lake Center
09:17PM 40.0864 -111.4481 301° West 284 327 17,300 -840 Descending Salt Lake Center
09:19PM 40.1267 -111.5372 301° West 285 328 16,200 -960 Descending Salt Lake Center
09:19PM 40.1417 -111.5942 289° West 286 329 16,000 -240 Descending Salt Lake Center
09:20PM 40.1622 -111.6300 307° West 286 329 16,000 -240 Level Salt Lake Center
09:20PM 40.1994 -111.7206 298° West 288 331 15,700 -600 Descending Salt Lake Center
09:21PM 40.2575 -111.7739 325° Northwest 290 334 15,000 -600 Descending Salt Lake Center
09:22PM 40.2689 -111.7756 354° North 281 323 15,000 -1,320 Level Salt Lake Center
09:22PM 40.3228 -111.8306 322° Northwest 284 327 13,700 -2,040 Descending Salt Lake Center
09:23PM 40.3475 -111.8442 337° Northwest 281 323 12,900 -1,980 Descending Salt Lake Center
09:24PM 40.4103 -111.8997 326° Northwest 273 314 11,100 -1,800 Descending Salt Lake Center
09:24PM 40.4497 -111.9281 331° Northwest 253 291 9,900 -1,920 Descending Salt Lake Center
09:25PM 40.4756 -111.9267 North 255 293 9,200 -1,320 Descending Salt Lake Center
09:25PM 40.5206 -111.9381 349° North 252 290 8,600 -900 Descending Salt Lake Center
09:26PM 40.5433 -111.9358 North 247 284 8,300 -1,320 Descending Salt Lake Center
09:26PM 40.5819 -111.9425 353° North 228 262 7,300 -1,380 Descending Salt Lake Center
09:27PM 40.6036 -111.9428 359° North 221 254 6,900 -1,200 Descending Salt Lake Center
09:27PM 40.6394 -111.9511 350° North 197 227 6,100 -900 Descending Salt Lake Center
09:28PM 40.6550 -111.9486 North 188 216 6,000 -300 Descending Salt Lake Center
09:29PM 40.6989 -111.9567 352° North 184 212 5,800 -540 Descending Salt Lake Center
09:30PM 40.7436 -111.9614 355° North 139 160 4,900 -780 Descending Salt Lake Center
09:31PM 40.7797 -111.9619 359° North 131 151 4,200 -720 Descending Salt Lake Center